createdAt,value
2022-08-29T00:05:45.078Z,87718.81
2022-08-29T00:08:18.053Z,87718.03
2022-08-29T00:15:07.899Z,87722.31
2022-08-29T00:17:35.556Z,87711.69
2022-08-29T00:20:06.009Z,87720.41
2022-08-29T00:22:33.722Z,87715.50
2022-08-29T00:25:01.303Z,87716.66
2022-08-29T00:27:29.313Z,87715.50
2022-08-29T00:30:14.532Z,87720.47
2022-08-29T00:33:01.233Z,87721.25
2022-08-29T00:35:35.025Z,87717.47
2022-08-29T00:41:44.978Z,87716.44
2022-08-29T00:44:12.778Z,87716.81
2022-08-29T00:51:01.413Z,87721.91
2022-08-29T00:53:44.495Z,87722.66
2022-08-29T01:00:33.587Z,87723.50
2022-08-29T01:03:01.060Z,87726.16
2022-08-29T01:05:28.682Z,87724.63
2022-08-29T01:07:56.021Z,87714.41
2022-08-29T01:10:23.550Z,87725.78
2022-08-29T01:12:50.804Z,87723.53
2022-08-29T01:19:39.561Z,87721.72
2022-08-29T01:22:30.979Z,87723.25
2022-08-29T01:25:02.018Z,87717.97
2022-08-29T01:35:38.444Z,87719.59
2022-08-29T01:38:05.703Z,87723.00
2022-08-29T01:40:35.610Z,87715.44
2022-08-29T01:43:02.796Z,87719.22
2022-08-29T01:45:30.097Z,87716.22
2022-08-29T01:47:59.911Z,87715.06
2022-08-29T01:50:33.160Z,87712.41
2022-08-29T01:53:00.306Z,87704.09
2022-08-29T01:55:31.487Z,87709.78
2022-08-29T01:57:59.148Z,87706.41
2022-08-29T02:00:26.399Z,87707.16
2022-08-29T02:02:53.843Z,87711.72
2022-08-29T02:09:30.996Z,87716.38
2022-08-29T02:12:00.218Z,87715.59
2022-08-29T02:14:27.369Z,87712.56
2022-08-29T02:16:54.571Z,87706.47
2022-08-29T02:24:25.738Z,87716.75
2022-08-29T02:31:04.565Z,87717.94
2022-08-29T02:33:32.679Z,87722.09
2022-08-29T02:35:59.973Z,87727.06
2022-08-29T02:38:29.447Z,87726.28
2022-08-29T02:40:57.205Z,87723.25
2022-08-29T02:47:16.278Z,87716.50
2022-08-29T02:49:43.829Z,87721.81
2022-08-29T02:55:53.294Z,87724.84
2022-08-29T02:58:22.989Z,87730.16
2022-08-29T03:00:51.419Z,87731.69
2022-08-29T03:03:19.376Z,87735.50
2022-08-29T03:05:47.242Z,87732.50
2022-08-29T03:08:15.628Z,87729.47
2022-08-29T03:10:43.961Z,87735.53
2022-08-29T03:13:11.767Z,87734.78
2022-08-29T03:15:39.864Z,87735.94
2022-08-29T03:18:07.757Z,87738.59
2022-08-29T03:20:38.021Z,87735.59
2022-08-29T03:23:06.148Z,87731.81
2022-08-29T03:25:35.471Z,87737.53
2022-08-29T03:28:04.113Z,87735.66
2022-08-29T03:30:31.514Z,87735.69
2022-08-29T03:32:58.782Z,87735.28
2022-08-29T03:35:26.144Z,87737.19
2022-08-29T03:37:55.953Z,87735.34
2022-08-29T03:40:24.928Z,87731.56
2022-08-29T03:42:53.845Z,87735.69
2022-08-29T03:45:22.940Z,87738.75
2022-08-29T03:47:50.291Z,87738.38
2022-08-29T03:50:17.810Z,87740.31
2022-08-29T03:52:45.112Z,87747.88
2022-08-29T03:55:13.771Z,87752.81
2022-08-29T03:57:41.354Z,87747.53
2022-08-29T04:00:12.822Z,87754.72
2022-08-29T04:02:40.927Z,87753.97
2022-08-29T04:05:09.313Z,87758.53
2022-08-29T04:07:52.878Z,87760.81
2022-08-29T04:10:25.462Z,87760.06
2022-08-29T04:12:55.039Z,87760.09
2022-08-29T04:15:25.176Z,87763.13
2022-08-29T04:17:55.057Z,87770.31
2022-08-29T04:20:32.780Z,87769.19
2022-08-29T04:23:00.758Z,87766.91
2022-08-29T04:25:33.912Z,87767.28
2022-08-29T04:28:13.967Z,87763.13
2022-08-29T04:30:51.861Z,87770.31
2022-08-29T04:33:24.318Z,87769.97
2022-08-29T04:35:52.938Z,87778.66
2022-08-29T04:38:20.410Z,87783.19
2022-08-29T04:40:48.154Z,87779.38
2022-08-29T04:43:15.412Z,87778.66
2022-08-29T04:45:42.633Z,87778.25
2022-08-29T04:48:10.203Z,87779.03
2022-08-29T04:50:37.750Z,87780.16
2022-08-29T04:53:05.326Z,87779.03
2022-08-29T04:55:32.720Z,87777.16
2022-08-29T04:58:00.515Z,87786.22
2022-08-29T05:00:29.271Z,87785.84
2022-08-29T05:02:58.131Z,87790.00
2022-08-29T05:05:25.845Z,87794.94
2022-08-29T05:07:53.065Z,87792.28
2022-08-29T05:10:21.922Z,87791.53
2022-08-29T05:12:49.216Z,87797.97
2022-08-29T05:15:19.723Z,87804.41
2022-08-29T05:17:47.064Z,87802.50
2022-08-29T05:20:14.836Z,87803.66
2022-08-29T05:22:42.823Z,87807.03
2022-08-29T05:25:18.058Z,87806.69
2022-08-29T05:27:46.932Z,87797.22
2022-08-29T05:30:16.518Z,87798.72
2022-08-29T05:33:01.606Z,87798.34
2022-08-29T05:35:28.799Z,87797.94
2022-08-29T05:37:56.108Z,87794.94
2022-08-29T05:40:23.417Z,87793.78
2022-08-29T05:42:50.654Z,87794.94
2022-08-29T05:45:18.001Z,87800.22
2022-08-29T05:47:45.300Z,87795.31
2022-08-29T05:50:12.896Z,87797.22
2022-08-29T05:52:41.408Z,87797.63
2022-08-29T05:55:09.231Z,87795.34
2022-08-29T05:57:36.848Z,87803.28
2022-08-29T06:00:07.081Z,87794.56
2022-08-29T06:02:34.753Z,87805.16
2022-08-29T06:05:02.072Z,87802.13
2022-08-29T06:07:29.470Z,87793.75
2022-08-29T06:10:00.380Z,87798.31
2022-08-29T06:12:31.288Z,87789.19
2022-08-29T06:14:58.499Z,87800.19
2022-08-29T06:17:25.834Z,87790.69
2022-08-29T06:19:53.012Z,87795.63
2022-08-29T06:22:20.407Z,87790.31
2022-08-29T06:24:47.814Z,87788.03
2022-08-29T06:27:16.108Z,87787.63
2022-08-29T06:29:43.920Z,87790.28
2022-08-29T06:32:13.372Z,87789.91
2022-08-29T06:34:41.134Z,87784.97
2022-08-29T06:37:08.407Z,87791.34
2022-08-29T06:39:35.680Z,87787.19
2022-08-29T06:42:03.085Z,87786.03
2022-08-29T06:44:30.924Z,87785.19
2022-08-29T06:46:59.181Z,87784.03
2022-08-29T06:49:27.556Z,87779.81
2022-08-29T06:51:58.306Z,87778.63
2022-08-29T06:54:28.937Z,87779.34
2022-08-29T06:56:58.155Z,87785.34
2022-08-29T06:59:26.799Z,87791.34
2022-08-29T07:01:54.460Z,87791.66
2022-08-29T07:04:21.810Z,87792.72
2022-08-29T07:06:50.362Z,87786.94
2022-08-29T07:09:18.102Z,87784.94
2022-08-29T07:11:53.485Z,87785.66
2022-08-29T07:14:29.917Z,87786.69
2022-08-29T07:17:01.928Z,87789.28
2022-08-29T07:19:29.475Z,87783.50
2022-08-29T07:21:59.357Z,87784.56
2022-08-29T07:24:27.462Z,87777.22
2022-08-29T07:31:06.336Z,87770.56
2022-08-29T07:33:35.183Z,87766.66
2022-08-29T07:36:03.238Z,87778.34
2022-08-29T07:38:31.178Z,87772.16
2022-08-29T07:41:02.069Z,87776.28
2022-08-29T07:43:29.520Z,87772.34
2022-08-29T07:45:58.117Z,87779.50
2022-08-29T07:48:26.263Z,87771.00
2022-08-29T07:50:53.639Z,87774.38
2022-08-29T07:53:20.779Z,87769.31
2022-08-29T07:55:48.003Z,87770.34
2022-08-29T07:58:15.359Z,87774.09
2022-08-29T08:00:42.698Z,87780.06
2022-08-29T08:03:09.947Z,87779.97
2022-08-29T08:05:37.551Z,87773.03
2022-08-29T08:08:08.884Z,87772.56
2022-08-29T08:10:42.096Z,87770.88
2022-08-29T08:13:09.360Z,87765.44
2022-08-29T08:15:39.653Z,87761.91
2022-08-29T08:18:07.111Z,87757.97
2022-08-29T08:20:35.283Z,87765.50
2022-08-29T08:23:02.546Z,87760.84
2022-08-29T08:25:29.933Z,87766.75
2022-08-29T08:27:57.220Z,87768.91
2022-08-29T08:30:25.665Z,87766.84
2022-08-29T08:32:54.988Z,87775.91
2022-08-29T08:35:22.940Z,87761.69
2022-08-29T08:37:50.417Z,87761.81
2022-08-29T08:40:26.131Z,87764.28
2022-08-29T08:43:00.803Z,87761.88
2022-08-29T08:45:43.488Z,87760.22
2022-08-29T08:48:26.309Z,87762.38
2022-08-29T08:51:34.056Z,87757.66
2022-08-29T08:54:07.498Z,87753.34
2022-08-29T08:56:47.539Z,87760.81
2022-08-29T08:59:26.329Z,87753.31
2022-08-29T09:02:25.042Z,87753.94
2022-08-29T09:05:30.980Z,87749.59
2022-08-29T09:08:16.031Z,87747.09
2022-08-29T09:10:56.664Z,87745.75
2022-08-29T09:14:13.966Z,87749.69
2022-08-29T09:16:48.706Z,87745.28
2022-08-29T09:19:17.658Z,87742.09
2022-08-29T09:22:06.726Z,87748.81
2022-08-29T09:24:49.470Z,87746.72
2022-08-29T09:27:24.685Z,87738.22
2022-08-29T09:30:09.448Z,87746.81
2022-08-29T09:33:03.371Z,87734.44
2022-08-29T09:35:46.029Z,87733.56
2022-08-29T09:38:22.460Z,87733.41
2022-08-29T09:41:03.256Z,87735.25
2022-08-29T09:43:39.641Z,87725.50
2022-08-29T09:46:25.387Z,87728.44
2022-08-29T09:49:12.137Z,87729.84
2022-08-29T09:51:47.160Z,87724.53
2022-08-29T09:54:29.118Z,87722.28
2022-08-29T09:57:08.217Z,87724.78
2022-08-29T09:59:49.020Z,87723.81
2022-08-29T10:02:46.392Z,87727.41
2022-08-29T10:05:44.580Z,87725.16
2022-08-29T10:08:33.714Z,87725.72
2022-08-29T10:11:06.966Z,87721.66
2022-08-29T10:14:02.236Z,87710.59
2022-08-29T10:17:00.938Z,87711.47
2022-08-29T10:19:33.100Z,87704.66
2022-08-29T10:22:38.696Z,87706.38
2022-08-29T10:27:40.886Z,87708.47
2022-08-29T10:30:15.287Z,87713.84
2022-08-29T10:33:16.043Z,87696.63
2022-08-29T10:36:11.859Z,87686.09
2022-08-29T10:38:48.357Z,87698.53
2022-08-29T10:41:24.373Z,87692.38
2022-08-29T10:44:26.506Z,87696.53
2022-08-29T10:47:02.470Z,87690.91
2022-08-29T10:50:02.677Z,87694.25
2022-08-29T10:53:13.369Z,87688.03
2022-08-29T10:55:55.743Z,87694.44
2022-08-29T10:58:43.845Z,87690.34
2022-08-29T11:01:53.099Z,87686.25
2022-08-29T11:04:37.175Z,87683.28
2022-08-29T11:07:33.257Z,87685.25
2022-08-29T11:10:12.547Z,87689.75
2022-08-29T11:13:15.008Z,87685.47
2022-08-29T11:15:48.449Z,87687.97
2022-08-29T11:18:29.184Z,87691.31
2022-08-29T11:21:22.562Z,87680.78
2022-08-29T11:23:50.224Z,87684.00
2022-08-29T11:26:34.511Z,87680.31
2022-08-29T11:29:24.819Z,87678.59
2022-08-29T11:32:01.436Z,87675.59
2022-08-29T11:34:31.696Z,87678.34
2022-08-29T11:37:13.818Z,87672.38
2022-08-29T11:40:15.106Z,87677.06
2022-08-29T11:42:53.584Z,87672.78
2022-08-29T11:45:37.572Z,87670.41
2022-08-29T11:48:19.456Z,87661.72
2022-08-29T11:50:47.580Z,87664.09
2022-08-29T11:53:28.480Z,87663.63
2022-08-29T11:56:14.476Z,87659.25
2022-08-29T11:58:46.950Z,87660.97
2022-08-29T12:01:35.497Z,87656.94
2022-08-29T12:04:08.601Z,87655.09
2022-08-29T12:06:52.467Z,87658.00
2022-08-29T12:09:43.204Z,87648.09
2022-08-29T12:12:17.660Z,87647.00
2022-08-29T12:14:52.710Z,87646.91
2022-08-29T12:17:24.693Z,87642.59
2022-08-29T12:19:57.507Z,87638.53
2022-08-29T12:25:28.450Z,87637.69
2022-08-29T12:28:03.667Z,87633.75
2022-08-29T12:30:43.219Z,87630.97
2022-08-29T12:33:29.047Z,87629.88
2022-08-29T12:35:59.772Z,87629.41
2022-08-29T12:39:04.209Z,87627.94
2022-08-29T12:41:46.933Z,87620.09
2022-08-29T12:44:19.775Z,87627.63
2022-08-29T12:46:55.264Z,87620.28
2022-08-29T12:49:40.990Z,87615.31
2022-08-29T12:52:22.065Z,87618.84
2022-08-29T12:54:55.712Z,87611.00
2022-08-29T12:57:37.665Z,87610.06
2022-08-29T13:00:27.671Z,87612.09
2022-08-29T13:03:15.190Z,87611.94
2022-08-29T13:05:44.056Z,87603.81
2022-08-29T13:08:15.790Z,87588.78
2022-08-29T13:10:56.523Z,87593.50
2022-08-29T13:13:25.632Z,87593.00
2022-08-29T13:15:55.289Z,87590.84
2022-08-29T13:18:23.613Z,87596.56
2022-08-29T13:21:06.308Z,87593.59
2022-08-29T13:23:43.850Z,87589.72
2022-08-29T13:26:11.406Z,87576.13
2022-08-29T13:28:54.943Z,87580.91
2022-08-29T13:31:30.182Z,87575.19
2022-08-29T13:33:57.769Z,87570.72
2022-08-29T13:36:49.265Z,87574.75
2022-08-29T13:39:16.871Z,87576.75
2022-08-29T13:42:01.619Z,87577.97
2022-08-29T13:44:53.804Z,87571.22
2022-08-29T13:47:40.019Z,87574.19
2022-08-29T13:50:10.788Z,87575.19
2022-08-29T13:52:38.302Z,87567.75
2022-08-29T13:55:09.899Z,87571.06
2022-08-29T13:57:40.522Z,87564.59
2022-08-29T14:00:09.300Z,87557.94
2022-08-29T14:02:39.265Z,87560.91
2022-08-29T14:05:10.869Z,87554.03
2022-08-29T14:07:40.668Z,87562.47
2022-08-29T14:10:09.133Z,87548.38
2022-08-29T14:12:36.917Z,87549.16
2022-08-29T14:15:09.595Z,87553.84
2022-08-29T14:17:41.614Z,87552.88
2022-08-29T14:20:10.395Z,87547.69
2022-08-29T14:22:38.435Z,87547.97
2022-08-29T14:25:08.359Z,87547.25
2022-08-29T14:27:36.529Z,87544.09
2022-08-29T14:30:06.887Z,87536.66
2022-08-29T14:32:34.635Z,87544.13
2022-08-29T14:35:02.758Z,87531.22
2022-08-29T14:37:30.444Z,87539.91
2022-08-29T14:39:59.144Z,87530.75
2022-08-29T14:42:26.802Z,87539.47
2022-08-29T14:44:54.391Z,87527.78
2022-08-29T14:47:22.042Z,87523.59
2022-08-29T14:49:49.607Z,87527.31
2022-08-29T14:52:17.331Z,87523.84
2022-08-29T14:54:44.886Z,87516.66
2022-08-29T14:57:12.535Z,87517.66
2022-08-29T14:59:40.678Z,87512.94
2022-08-29T15:02:09.360Z,87528.81
2022-08-29T15:04:37.951Z,87524.81
2022-08-29T15:07:11.497Z,87518.66
2022-08-29T15:09:40.051Z,87526.81
2022-08-29T15:12:08.011Z,87525.81
2022-08-29T15:14:35.729Z,87528.06
2022-08-29T15:17:04.356Z,87532.28
2022-08-29T15:22:21.525Z,87524.06
2022-08-29T15:24:50.739Z,87530.53
2022-08-29T15:27:24.899Z,87527.06
2022-08-29T15:29:55.224Z,87519.13
2022-08-29T15:32:23.302Z,87524.53
2022-08-29T15:34:51.413Z,87531.97
2022-08-29T15:37:19.072Z,87538.16
2022-08-29T15:39:46.824Z,87529.25
2022-08-29T15:42:17.284Z,87533.69
2022-08-29T15:44:45.481Z,87535.94
2022-08-29T15:47:13.139Z,87535.94
2022-08-29T15:49:42.033Z,87536.97
2022-08-29T15:52:11.997Z,87540.94
2022-08-29T15:54:40.112Z,87540.72
2022-08-29T15:57:08.118Z,87537.66
2022-08-29T16:07:00.280Z,87542.38
2022-08-29T16:09:28.227Z,87551.56
2022-08-29T16:11:59.263Z,87553.56
2022-08-29T16:17:23.350Z,87564.63
2022-08-29T16:19:51.188Z,87565.50
2022-08-29T16:22:47.414Z,87563.59
2022-08-29T16:28:57.370Z,87564.31
2022-08-29T16:31:25.292Z,87575.22
2022-08-29T16:33:53.089Z,87569.59
2022-08-29T16:40:35.586Z,87572.94
2022-08-29T16:43:04.475Z,87573.53
2022-08-29T16:45:36.925Z,87570.53
2022-08-29T16:51:38.559Z,87575.63
2022-08-29T16:54:06.399Z,87576.94
2022-08-29T16:56:34.006Z,87579.91
2022-08-29T17:03:21.079Z,87594.75
2022-08-29T17:05:48.802Z,87601.84
2022-08-29T17:08:17.322Z,87599.19
2022-08-29T17:10:46.898Z,87603.34
2022-08-29T17:13:24.685Z,87606.28
2022-08-29T17:15:52.761Z,87600.63
2022-08-29T17:18:20.409Z,87599.44
2022-08-29T17:28:41.515Z,87610.13
2022-08-29T17:31:09.387Z,87608.03
2022-08-29T17:33:37.006Z,87607.56
2022-08-29T17:36:05.917Z,87613.72
2022-08-29T17:38:33.828Z,87619.88
2022-08-29T17:41:04.404Z,87619.13
2022-08-29T17:43:43.377Z,87626.81
2022-08-29T17:46:10.995Z,87632.03
2022-08-29T17:48:38.762Z,87629.19
2022-08-29T17:51:06.976Z,87639.81
2022-08-29T17:53:34.986Z,87650.59
2022-08-29T17:56:20.980Z,87641.28
2022-08-29T17:58:48.642Z,87645.63
2022-08-29T18:01:17.109Z,87649.78
2022-08-29T18:03:45.544Z,87655.91
2022-08-29T18:06:14.607Z,87657.81
2022-08-29T18:08:47.793Z,87662.75
2022-08-29T18:11:16.746Z,87673.06
2022-08-29T18:13:44.958Z,87676.78
2022-08-29T18:16:14.892Z,87678.63
2022-08-29T18:18:42.681Z,87683.84
2022-08-29T18:21:11.756Z,87682.06
2022-08-29T18:23:42.065Z,87691.88
2022-08-29T18:26:09.672Z,87702.94
2022-08-29T18:28:37.220Z,87702.44
2022-08-29T18:31:05.107Z,87701.63
2022-08-29T18:33:50.289Z,87704.13
2022-08-29T18:36:20.392Z,87707.19
2022-08-29T18:38:48.049Z,87716.72
2022-08-29T18:41:15.730Z,87715.03
2022-08-29T18:43:43.678Z,87727.94
2022-08-29T18:46:11.868Z,87740.88
2022-08-29T18:48:39.484Z,87742.31
2022-08-29T18:51:07.119Z,87747.06
2022-08-29T18:53:34.779Z,87751.78
2022-08-29T18:56:02.657Z,87757.75
2022-08-29T18:58:32.894Z,87759.03
2022-08-29T19:01:13.740Z,87767.22
2022-08-29T19:03:41.672Z,87767.03
2022-08-29T19:06:09.702Z,87777.13
2022-08-29T19:08:38.981Z,87770.34
2022-08-29T19:11:07.487Z,87777.47
2022-08-29T19:13:35.641Z,87774.56
2022-08-29T19:16:04.874Z,87772.50
2022-08-29T19:18:32.993Z,87773.78
2022-08-29T19:21:00.958Z,87774.75
2022-08-29T19:23:31.813Z,87772.94
2022-08-29T19:26:00.418Z,87762.00
2022-08-29T19:28:28.202Z,87768.66
2022-08-29T19:30:55.804Z,87777.88
2022-08-29T19:33:24.025Z,87771.88
2022-08-29T19:35:52.169Z,87775.09
2022-08-29T19:38:21.673Z,87780.91
2022-08-29T19:40:50.211Z,87788.00
2022-08-29T19:43:18.020Z,87795.06
2022-08-29T19:45:45.757Z,87801.69
2022-08-29T19:48:15.414Z,87799.97
2022-08-29T19:50:47.526Z,87801.25
2022-08-29T19:53:24.611Z,87799.97
2022-08-29T19:55:56.064Z,87809.25
2022-08-29T19:58:31.886Z,87806.03
2022-08-29T20:01:06.984Z,87806.97
2022-08-29T20:03:39.789Z,87811.25
2022-08-29T20:06:07.794Z,87812.53
2022-08-29T20:08:42.363Z,87813.03
2022-08-29T20:11:19.498Z,87814.63
2022-08-29T20:13:51.462Z,87808.94
2022-08-29T20:16:22.387Z,87811.31
2022-08-29T20:18:50.941Z,87817.84
2022-08-29T20:21:19.951Z,87823.97
2022-08-29T20:23:49.462Z,87809.47
2022-08-29T20:26:21.981Z,87817.19
2022-08-29T20:28:51.366Z,87819.53
2022-08-29T20:31:20.456Z,87822.31
2022-08-29T20:33:48.493Z,87819.72
2022-08-29T20:36:18.374Z,87822.91
2022-08-29T20:38:46.069Z,87822.34
2022-08-29T20:41:13.944Z,87823.28
2022-08-29T20:43:48.659Z,87810.06
2022-08-29T20:46:16.380Z,87825.88
2022-08-29T20:48:43.939Z,87816.72
2022-08-29T20:51:11.717Z,87824.13
2022-08-29T20:53:41.007Z,87820.03
2022-08-29T20:56:08.670Z,87823.97
2022-08-29T20:58:36.661Z,87823.72
2022-08-29T21:01:04.790Z,87828.81
2022-08-29T21:03:32.476Z,87829.75
2022-08-29T21:06:00.291Z,87829.16
2022-08-29T21:08:27.993Z,87824.63
2022-08-29T21:10:55.593Z,87830.06
2022-08-29T21:13:23.295Z,87820.28
2022-08-29T21:15:51.167Z,87830.22
2022-08-29T21:18:20.951Z,87824.63
2022-08-29T21:20:53.752Z,87828.91
2022-08-29T21:23:24.134Z,87840.84
2022-08-29T21:25:57.120Z,87836.06
2022-08-29T21:28:25.947Z,87835.03
2022-08-29T21:30:55.150Z,87832.09
2022-08-29T21:33:22.890Z,87842.88
2022-08-29T21:35:50.704Z,87851.31
2022-08-29T21:38:18.417Z,87845.28
2022-08-29T21:40:50.948Z,87857.22
2022-08-29T21:43:19.952Z,87855.44
2022-08-29T21:45:48.501Z,87862.78
2022-08-29T21:48:16.181Z,87864.03
2022-08-29T21:50:43.923Z,87860.34
2022-08-29T21:53:13.852Z,87868.06
2022-08-29T21:55:42.931Z,87865.06
2022-08-29T21:58:10.514Z,87861.72
2022-08-29T22:00:38.530Z,87857.19
2022-08-29T22:03:08.109Z,87859.13
2022-08-29T22:05:35.781Z,87861.38
2022-08-29T22:08:07.825Z,87863.22
2022-08-29T22:10:41.744Z,87869.31
2022-08-29T22:13:09.521Z,87860.59
2022-08-29T22:15:37.132Z,87865.63
2022-08-29T22:18:05.447Z,87867.94
2022-08-29T22:20:33.228Z,87869.53
2022-08-29T22:23:00.832Z,87872.00
2022-08-29T22:25:28.446Z,87868.28
2022-08-29T22:27:56.007Z,87861.91
2022-08-29T22:30:32.168Z,87860.84
2022-08-29T22:33:01.072Z,87868.56
2022-08-29T22:35:29.113Z,87861.78
2022-08-29T22:37:56.770Z,87866.38
2022-08-29T22:40:24.994Z,87866.44
2022-08-29T22:42:52.998Z,87871.44
2022-08-29T22:45:21.961Z,87869.91
2022-08-29T22:47:49.688Z,87872.25
2022-08-29T22:50:21.010Z,87876.91
2022-08-29T22:52:49.379Z,87882.31
2022-08-29T22:57:48.444Z,87883.56
2022-08-29T23:00:20.816Z,87875.97
2022-08-29T23:02:50.182Z,87876.03
2022-08-29T23:05:19.405Z,87882.97
2022-08-29T23:07:47.808Z,87880.06
2022-08-29T23:10:15.675Z,87884.22
2022-08-29T23:12:43.534Z,87875.53
2022-08-29T23:15:14.899Z,87887.00
2022-08-29T23:17:42.440Z,87888.22
2022-08-29T23:20:12.531Z,87892.78
2022-08-29T23:22:40.612Z,87889.44
2022-08-29T23:25:12.407Z,87892.56
2022-08-29T23:27:40.295Z,87886.13
2022-08-29T23:30:11.563Z,87886.88
2022-08-29T23:32:39.252Z,87883.84
2022-08-29T23:35:07.872Z,87888.44
2022-08-29T23:37:35.414Z,87882.03
2022-08-29T23:40:03.723Z,87878.56
2022-08-29T23:42:32.278Z,87880.13
2022-08-29T23:44:59.875Z,87871.03
2022-08-29T23:47:27.493Z,87870.25
2022-08-29T23:49:55.047Z,87869.91
2022-08-29T23:52:22.556Z,87866.47
2022-08-29T23:54:50.121Z,87864.19
2022-08-29T23:57:17.678Z,87860.44
2022-08-29T23:59:45.257Z,87866.16
